Time;durP1;ratioP1;P1;durP2;ratioP2;P2;SDS_P1;SDS_P2;PMS_P1;PMS_P2;Temp;Humidity;BMP_temperature;BMP_pressure;BME280_temperature;BME280_humidity;BME280_pressure;Samples;Min_cycle;Max_cycle;Signal;HPM_P1;HPM_P2
2023/07/04 00:01:09;;;;;;;9.30;2.08;;;14.10;99.90;;;;;;5026233;28;20034;-48
2023/07/04 00:03:36;;;;;;;13.43;2.33;;;14.10;99.90;;;;;;5027084;28;20048;-48
2023/07/04 00:06:02;;;;;;;6.80;2.47;;;14.10;99.90;;;;;;5027214;28;20037;-48
2023/07/04 00:08:29;;;;;;;7.88;2.22;;;14.10;99.90;;;;;;5027897;28;20429;-49
2023/07/04 00:10:58;;;;;;;9.60;2.28;;;14.10;99.90;;;;;;5028206;28;20052;-48
2023/07/04 00:13:26;;;;;;;15.93;2.80;;;14.10;99.90;;;;;;5028187;28;20080;-50
2023/07/04 00:15:52;;;;;;;13.27;3.33;;;14.10;99.90;;;;;;5028285;28;20542;-48
2023/07/04 00:18:20;;;;;;;11.73;2.55;;;14.20;99.90;;;;;;5027760;28;20041;-48
2023/07/04 00:20:58;;;;;;;12.98;2.85;;;14.20;99.90;;;;;;5026019;28;20057;-48
2023/07/04 00:23:26;;;;;;;12.57;2.58;;;14.20;99.90;;;;;;5028154;28;20120;-51
2023/07/04 00:25:52;;;;;;;10.30;2.20;;;14.20;99.90;;;;;;5025803;28;20042;-48
2023/07/04 00:28:21;;;;;;;12.27;2.78;;;14.10;99.90;;;;;;5027911;28;20026;-51
2023/07/04 00:30:54;;;;;;;12.10;3.10;;;14.10;99.90;;;;;;5028117;28;20042;-48
2023/07/04 00:33:25;;;;;;;12.65;2.80;;;14.10;99.90;;;;;;5028025;28;20037;-49
2023/07/04 00:36:00;;;;;;;15.48;2.50;;;14.10;99.90;;;;;;5027913;28;20045;-48
2023/07/04 00:38:26;;;;;;;4.70;1.92;;;14.10;99.90;;;;;;5027314;28;20518;-51
2023/07/04 00:40:52;;;;;;;14.35;2.90;;;14.10;99.90;;;;;;5032183;28;20048;-49
2023/07/04 00:43:18;;;;;;;10.35;3.45;;;14.00;99.90;;;;;;5031892;28;20056;-48
2023/07/04 00:45:44;;;;;;;15.95;3.70;;;14.00;99.90;;;;;;5032505;28;20431;-48
2023/07/04 00:48:14;;;;;;;7.43;2.42;;;14.00;99.90;;;;;;5030779;28;20042;-51
2023/07/04 00:50:45;;;;;;;6.40;2.10;;;14.10;99.90;;;;;;5032576;28;20064;-48
2023/07/04 00:53:12;;;;;;;10.23;2.42;;;14.00;99.90;;;;;;5031615;28;20034;-48
2023/07/04 00:55:43;;;;;;;11.15;3.25;;;14.00;99.90;;;;;;5032253;28;20052;-52
2023/07/04 00:58:09;;;;;;;9.10;2.50;;;14.00;99.90;;;;;;5031394;28;20033;-48
2023/07/04 01:00:37;;;;;;;10.68;2.65;;;14.00;99.90;;;;;;5031654;28;20086;-49
2023/07/04 01:03:20;;;;;;;8.20;2.90;;;14.00;99.90;;;;;;5031546;28;20099;-49
2023/07/04 01:06:14;;;;;;;7.70;2.10;;;14.00;99.90;;;;;;5031625;28;20514;-48
2023/07/04 01:08:43;;;;;;;5.55;1.98;;;14.00;99.90;;;;;;5030960;28;20035;-48
2023/07/04 01:11:17;;;;;;;13.82;2.33;;;14.00;99.90;;;;;;5030764;28;20040;-53
2023/07/04 01:13:43;;;;;;;8.52;2.47;;;13.90;99.90;;;;;;5029751;28;20185;-51
2023/07/04 01:16:17;;;;;;;8.45;2.22;;;13.90;99.90;;;;;;5031689;28;20491;-50
2023/07/04 01:18:48;;;;;;;12.57;2.90;;;13.90;99.90;;;;;;5031314;28;20116;-50
2023/07/04 01:21:18;;;;;;;10.60;2.58;;;13.90;99.90;;;;;;5029003;28;20120;-48
2023/07/04 01:24:10;;;;;;;10.80;2.33;;;13.90;99.90;;;;;;5031057;28;20040;-48
2023/07/04 01:26:39;;;;;;;10.60;3.60;;;13.90;99.90;;;;;;5032113;28;20073;-48
2023/07/04 01:29:08;;;;;;;7.65;2.28;;;13.90;99.90;;;;;;5031284;28;20170;-48
2023/07/04 01:31:35;;;;;;;9.32;2.50;;;13.90;99.90;;;;;;5029542;28;20041;-48
2023/07/04 01:34:04;;;;;;;8.98;2.03;;;13.90;99.90;;;;;;5030921;28;20589;-48
2023/07/04 01:36:32;;;;;;;9.45;2.33;;;13.90;99.90;;;;;;5030861;28;20123;-51
2023/07/04 01:38:58;;;;;;;7.22;2.40;;;13.80;99.90;;;;;;5028071;28;20449;-49
2023/07/04 01:41:24;;;;;;;8.25;2.30;;;13.80;99.90;;;;;;5031449;28;20037;-49
2023/07/04 01:44:03;;;;;;;7.38;1.80;;;13.80;99.90;;;;;;5030768;28;20087;-49
2023/07/04 01:46:29;;;;;;;9.00;2.40;;;13.70;99.90;;;;;;5028817;28;20045;-48
2023/07/04 01:48:55;;;;;;;11.77;1.83;;;13.70;99.90;;;;;;5029581;28;20030;-48
2023/07/04 01:51:29;;;;;;;;;;;13.70;99.90;;;;;;5031577;28;20044;-48
2023/07/04 01:53:55;;;;;;;5.90;2.03;;;13.70;99.90;;;;;;5030650;28;19917;-48
2023/07/04 01:56:21;;;;;;;13.77;3.78;;;13.60;99.90;;;;;;5031034;28;20037;-48
2023/07/04 01:58:46;;;;;;;9.20;2.10;;;13.60;99.90;;;;;;5030295;28;20037;-51
2023/07/04 02:01:12;;;;;;;8.00;2.67;;;13.60;99.90;;;;;;5030801;28;20037;-49
2023/07/04 02:03:37;;;;;;;12.38;2.47;;;13.60;99.90;;;;;;5028585;28;20045;-52
2023/07/04 02:06:03;;;;;;;11.13;2.97;;;13.70;99.90;;;;;;5029845;28;20034;-48
2023/07/04 02:08:29;;;;;;;12.75;2.92;;;13.60;99.90;;;;;;5030150;28;20078;-50
2023/07/04 02:10:54;;;;;;;7.13;2.20;;;13.60;99.90;;;;;;5031152;28;20033;-48
2023/07/04 02:13:20;;;;;;;10.30;2.25;;;13.60;99.90;;;;;;5029873;28;20544;-48
2023/07/04 02:15:46;;;;;;;6.55;2.22;;;13.60;99.90;;;;;;5030418;28;20110;-48
2023/07/04 02:18:11;;;;;;;12.18;2.35;;;13.60;99.90;;;;;;5029656;28;20049;-50
2023/07/04 02:20:37;;;;;;;8.93;2.92;;;13.60;99.90;;;;;;5028275;28;20041;-48
2023/07/04 02:23:02;;;;;;;11.90;2.80;;;13.60;99.90;;;;;;5030253;28;20041;-53
2023/07/04 02:25:28;;;;;;;15.88;3.75;;;13.60;99.90;;;;;;5029985;28;20295;-48
2023/07/04 02:27:53;;;;;;;9.70;3.40;;;13.60;99.90;;;;;;5011856;28;20124;-51
2023/07/04 02:30:19;;;;;;;10.98;2.38;;;13.60;99.90;;;;;;5030119;28;20037;-48
2023/07/04 02:32:45;;;;;;;10.57;3.08;;;13.50;99.90;;;;;;5029708;28;20147;-52
2023/07/04 02:35:10;;;;;;;11.65;3.70;;;13.50;99.90;;;;;;5027843;28;20486;-48
2023/07/04 02:37:36;;;;;;;12.18;3.10;;;13.50;99.90;;;;;;5028229;28;20038;-50
2023/07/04 02:40:02;;;;;;;8.30;2.67;;;13.50;99.90;;;;;;5029889;28;20036;-48
2023/07/04 02:42:27;;;;;;;12.05;3.72;;;13.40;99.90;;;;;;5030079;28;20049;-48
2023/07/04 02:44:53;;;;;;;16.83;3.17;;;13.40;99.90;;;;;;5029706;28;20050;-50
2023/07/04 02:47:23;;;;;;;13.88;3.38;;;13.40;99.90;;;;;;5029337;28;20292;-50
2023/07/04 02:49:48;;;;;;;11.55;3.15;;;13.40;99.90;;;;;;5029638;28;20029;-48
2023/07/04 02:52:14;;;;;;;10.20;3.87;;;13.40;99.90;;;;;;5030226;28;20566;-48
2023/07/04 02:54:39;;;;;;;10.93;3.33;;;13.40;99.90;;;;;;5029302;28;20296;-50
2023/07/04 02:57:06;;;;;;;9.02;4.13;;;13.40;99.90;;;;;;5029822;28;20033;-50
2023/07/04 02:59:31;;;;;;;17.92;4.13;;;13.40;99.90;;;;;;5027490;28;20046;-51
2023/07/04 03:01:57;;;;;;;9.48;3.13;;;13.40;99.90;;;;;;5028472;28;20429;-48
2023/07/04 03:04:22;;;;;;;13.48;4.53;;;13.40;99.90;;;;;;5029198;28;20443;-48
2023/07/04 03:06:48;;;;;;;10.60;4.40;;;13.40;99.90;;;;;;5029141;28;20045;-53
2023/07/04 03:09:13;;;;;;;10.85;4.53;;;13.40;99.90;;;;;;5029206;28;20049;-55
2023/07/04 03:11:39;;;;;;;8.38;4.03;;;13.40;99.90;;;;;;5029514;28;20337;-52
2023/07/04 03:14:04;;;;;;;13.90;4.20;;;13.40;99.90;;;;;;5028880;28;20045;-52
2023/07/04 03:16:30;;;;;;;11.63;5.40;;;13.40;99.90;;;;;;5027603;28;20145;-53
2023/07/04 03:18:56;;;;;;;10.13;4.45;;;13.40;99.90;;;;;;5028820;28;20037;-48
2023/07/04 03:21:21;;;;;;;15.27;4.72;;;13.40;99.90;;;;;;5029456;28;20521;-48
2023/07/04 03:23:47;;;;;;;11.95;3.78;;;13.40;99.90;;;;;;5028985;28;20465;-49
2023/07/04 03:26:12;;;;;;;12.60;4.30;;;13.30;99.90;;;;;;5029412;28;20041;-56
2023/07/04 03:28:38;;;;;;;18.33;5.03;;;13.30;99.90;;;;;;5029003;28;20280;-49
2023/07/04 03:31:04;;;;;;;14.13;4.50;;;13.30;99.90;;;;;;5028882;28;20459;-47
2023/07/04 03:33:30;;;;;;;15.55;5.07;;;13.30;99.90;;;;;;5028647;28;20116;-48
2023/07/04 03:35:56;;;;;;;9.68;4.38;;;13.30;99.90;;;;;;5029189;28;20072;-48
2023/07/04 03:38:21;;;;;;;14.02;3.95;;;13.30;99.90;;;;;;5028934;28;20053;-48
2023/07/04 03:40:47;;;;;;;12.07;4.05;;;13.30;99.90;;;;;;5028901;28;20033;-50
2023/07/04 03:43:13;;;;;;;14.88;5.05;;;13.30;99.90;;;;;;5028403;28;20044;-54
2023/07/04 03:45:38;;;;;;;15.45;4.88;;;13.30;99.90;;;;;;5028075;28;20418;-48
2023/07/04 03:48:04;;;;;;;13.70;3.80;;;13.30;99.90;;;;;;5028567;28;20025;-48
2023/07/04 03:50:30;;;;;;;15.50;4.38;;;13.30;99.90;;;;;;5028722;28;20490;-52
2023/07/04 03:52:55;;;;;;;16.73;4.57;;;13.30;99.90;;;;;;5028969;28;20135;-51
2023/07/04 03:55:21;;;;;;;14.10;4.13;;;13.30;99.90;;;;;;5027952;28;20476;-48
2023/07/04 03:57:47;;;;;;;19.35;4.20;;;13.30;99.90;;;;;;5028021;28;20453;-48
2023/07/04 04:00:13;;;;;;;16.17;4.25;;;13.40;99.90;;;;;;5028481;28;20045;-52
2023/07/04 04:02:39;;;;;;;16.92;3.97;;;13.40;99.90;;;;;;5028549;28;20458;-48
2023/07/04 04:05:04;;;;;;;14.38;4.90;;;13.40;99.90;;;;;;5028288;28;20033;-51
2023/07/04 04:07:30;;;;;;;11.60;3.65;;;13.40;99.90;;;;;;5027885;28;20034;-50
2023/07/04 04:09:55;;;;;;;15.27;4.30;;;13.40;99.90;;;;;;5028422;28;20513;-52
2023/07/04 04:12:21;;;;;;;16.48;3.83;;;13.40;99.90;;;;;;5028305;28;20061;-48
2023/07/04 04:14:47;;;;;;;15.00;3.92;;;13.50;99.90;;;;;;5027349;28;20034;-50
2023/07/04 04:17:13;;;;;;;10.27;4.27;;;13.50;99.90;;;;;;5027819;28;20026;-48
2023/07/04 04:19:38;;;;;;;15.20;4.18;;;13.50;99.90;;;;;;5028207;28;20295;-48
2023/07/04 04:22:04;;;;;;;12.07;3.80;;;13.50;99.90;;;;;;5026773;28;20087;-51
2023/07/04 04:24:30;;;;;;;11.38;2.78;;;13.50;99.90;;;;;;5027817;28;20095;-48
2023/07/04 04:26:57;;;;;;;15.10;3.88;;;13.50;99.90;;;;;;5028184;28;20050;-48
2023/07/04 04:29:22;;;;;;;13.32;3.92;;;13.50;99.90;;;;;;5027619;28;20037;-52
2023/07/04 04:31:48;;;;;;;6.60;2.95;;;13.50;99.90;;;;;;5027838;28;20061;-49
2023/07/04 04:34:20;;;;;;;16.15;3.88;;;13.50;99.90;;;;;;5027896;28;20546;-50
2023/07/04 04:36:46;;;;;;;11.00;3.30;;;13.50;99.90;;;;;;5028223;28;20522;-48
2023/07/04 04:39:12;;;;;;;10.77;3.45;;;13.50;99.90;;;;;;5027904;28;20038;-51
2023/07/04 04:41:38;;;;;;;;;;;13.50;99.90;;;;;;5027598;28;20445;-50
2023/07/04 04:44:04;;;;;;;9.88;3.08;;;13.50;99.90;;;;;;5026816;28;20032;-49
2023/07/04 04:46:31;;;;;;;10.65;3.10;;;13.40;99.90;;;;;;5028172;28;20033;-51
2023/07/04 04:49:02;;;;;;;10.18;3.15;;;13.50;99.90;;;;;;5027661;28;20115;-50
2023/07/04 04:51:29;;;;;;;9.73;3.50;;;13.50;99.90;;;;;;5028477;28;20069;-48
2023/07/04 04:53:54;;;;;;;7.43;2.25;;;13.50;99.90;;;;;;5024915;28;20041;-52
2023/07/04 04:56:20;;;;;;;8.40;3.47;;;13.50;99.90;;;;;;5028070;28;20444;-48
2023/07/04 04:58:45;;;;;;;11.43;2.90;;;13.60;99.90;;;;;;5026868;28;20509;-48
2023/07/04 05:01:17;;;;;;;9.25;2.30;;;13.60;99.90;;;;;;5028581;28;20479;-53
2023/07/04 05:03:46;;;;;;;7.07;2.78;;;13.60;99.90;;;;;;5027610;28;20104;-48
2023/07/04 05:06:12;;;;;;;10.10;3.28;;;13.60;99.90;;;;;;5028012;28;20045;-53
2023/07/04 05:08:38;;;;;;;11.63;2.85;;;13.60;99.90;;;;;;5027361;28;20038;-50
2023/07/04 05:11:07;;;;;;;10.75;1.70;;;13.70;99.90;;;;;;5028179;28;20120;-50
2023/07/04 05:13:38;;;;;;;8.88;2.00;;;13.70;99.90;;;;;;5023883;28;20037;-48
2023/07/04 05:16:07;;;;;;;5.97;1.65;;;13.80;99.90;;;;;;5028489;28;20303;-50
2023/07/04 05:18:34;;;;;;;5.80;2.13;;;13.80;99.90;;;;;;5027451;28;20420;-48
2023/07/04 05:21:05;;;;;;;7.97;1.90;;;13.80;99.90;;;;;;5025888;28;20038;-51
2023/07/04 05:23:33;;;;;;;11.30;2.97;;;13.90;99.90;;;;;;5026698;28;20521;-51
2023/07/04 05:26:07;;;;;;;9.00;2.00;;;13.90;99.90;;;;;;5031889;28;20513;-49
2023/07/04 05:28:33;;;;;;;9.45;1.50;;;14.00;99.90;;;;;;5029212;28;20507;-50
2023/07/04 05:31:00;;;;;;;9.65;2.03;;;14.00;99.90;;;;;;5032003;28;20030;-50
2023/07/04 05:33:26;;;;;;;9.02;1.75;;;14.00;99.90;;;;;;5030948;28;21275;-47
2023/07/04 05:36:02;;;;;;;7.97;1.98;;;14.00;99.90;;;;;;5031223;28;20120;-53
2023/07/04 05:38:28;;;;;;;7.38;1.90;;;14.00;99.90;;;;;;5030680;28;20112;-47
2023/07/04 05:40:53;;;;;;;8.30;2.00;;;14.00;99.90;;;;;;5031459;28;20129;-47
2023/07/04 05:43:19;;;;;;;12.50;2.35;;;14.00;99.90;;;;;;5027924;28;20067;-49
2023/07/04 05:45:49;;;;;;;6.05;1.92;;;14.10;99.90;;;;;;5030862;28;20052;-49
2023/07/04 05:48:14;;;;;;;11.68;2.75;;;14.10;99.90;;;;;;5030580;28;20422;-48
2023/07/04 05:50:57;;;;;;;8.15;2.05;;;14.10;99.90;;;;;;5030583;28;20030;-51
2023/07/04 05:53:26;;;;;;;6.22;2.13;;;14.10;99.90;;;;;;5030336;28;20052;-51
2023/07/04 05:55:52;;;;;;;10.65;2.05;;;14.20;99.90;;;;;;5031153;28;20037;-47
2023/07/04 05:58:19;;;;;;;5.13;1.83;;;14.20;99.90;;;;;;5030510;28;20047;-47
2023/07/04 06:00:47;;;;;;;7.78;2.15;;;14.30;99.90;;;;;;5030601;28;20041;-51
2023/07/04 06:03:17;;;;;;;9.93;2.00;;;14.30;99.90;;;;;;5028802;28;21236;-47
2023/07/04 06:05:44;;;;;;;7.78;2.08;;;14.40;99.90;;;;;;5028825;28;20487;-56
2023/07/04 06:08:10;;;;;;;11.82;1.70;;;14.40;99.90;;;;;;5028953;28;20128;-48
2023/07/04 06:10:36;;;;;;;9.10;1.58;;;14.50;99.90;;;;;;5030937;28;20033;-48
2023/07/04 06:13:02;;;;;;;7.55;2.33;;;14.50;99.90;;;;;;5029983;28;20387;-48
2023/07/04 06:15:29;;;;;;;5.93;1.58;;;14.50;99.90;;;;;;5030287;28;20045;-48
2023/07/04 06:17:55;;;;;;;6.05;1.58;;;14.60;99.90;;;;;;5029799;28;20114;-48
2023/07/04 06:20:20;;;;;;;7.55;1.60;;;14.60;99.90;;;;;;5030650;28;20076;-52
2023/07/04 06:22:47;;;;;;;4.43;1.63;;;14.70;99.90;;;;;;5030619;28;20041;-47
2023/07/04 06:25:12;;;;;;;;;;;14.80;99.90;;;;;;5030419;28;20042;-50
2023/07/04 06:27:41;;;;;;;7.38;1.80;;;14.80;99.90;;;;;;5029752;28;19928;-48
2023/07/04 06:30:08;;;;;;;7.03;1.17;;;14.90;99.90;;;;;;5026980;28;20415;-49
2023/07/04 06:32:34;;;;;;;6.90;1.42;;;15.00;99.90;;;;;;5028520;28;20398;-49
2023/07/04 06:35:00;;;;;;;9.02;2.55;;;15.00;99.90;;;;;;5025522;28;20120;-53
2023/07/04 06:37:25;;;;;;;5.13;1.23;;;15.10;99.90;;;;;;5027925;28;20128;-51
2023/07/04 06:39:51;;;;;;;4.35;1.67;;;15.10;99.90;;;;;;5029734;28;20039;-48
2023/07/04 06:42:16;;;;;;;7.47;1.90;;;15.10;99.90;;;;;;5028769;28;20045;-53
2023/07/04 06:44:45;;;;;;;8.60;1.98;;;15.10;99.90;;;;;;5029017;28;20041;-53
2023/07/04 06:47:11;;;;;;;6.63;1.65;;;15.20;99.90;;;;;;5029189;28;20103;-50
2023/07/04 06:49:37;;;;;;;10.88;1.20;;;15.30;99.90;;;;;;5024921;28;20061;-51
2023/07/04 06:52:02;;;;;;;8.43;1.40;;;15.50;99.90;;;;;;5024798;28;20037;-54
2023/07/04 06:54:28;;;;;;;6.95;0.85;;;15.70;99.90;;;;;;5028400;28;20099;-51
2023/07/04 06:56:54;;;;;;;8.60;1.70;;;15.80;99.90;;;;;;5023845;28;20072;-52
2023/07/04 06:59:19;;;;;;;5.72;1.42;;;15.90;99.90;;;;;;5020683;28;20052;-54
2023/07/04 07:01:45;;;;;;;6.13;0.85;;;15.90;99.90;;;;;;5026767;28;20405;-50
2023/07/04 07:04:12;;;;;;;3.70;1.02;;;16.10;99.90;;;;;;5028376;28;20041;-52
2023/07/04 07:06:39;;;;;;;8.68;1.42;;;16.10;99.90;;;;;;5028940;28;20038;-49
2023/07/04 07:09:08;;;;;;;9.95;1.10;;;16.10;99.90;;;;;;5018350;28;20043;-51
2023/07/04 07:11:34;;;;;;;6.28;1.08;;;16.10;99.90;;;;;;5024695;28;20030;-53
2023/07/04 07:14:00;;;;;;;;;;;16.10;99.90;;;;;;5024178;28;20059;-48
2023/07/04 07:16:26;;;;;;;7.38;2.05;;;16.10;99.90;;;;;;5026180;28;19921;-48
2023/07/04 07:18:53;;;;;;;7.88;1.58;;;16.00;99.90;;;;;;5028889;28;20037;-55
2023/07/04 07:21:24;;;;;;;5.72;1.00;;;16.10;99.90;;;;;;5026359;28;20135;-49
2023/07/04 07:23:50;;;;;;;7.35;1.00;;;16.10;99.90;;;;;;5028515;28;20049;-52
2023/07/04 07:26:19;;;;;;;6.40;1.45;;;16.10;99.90;;;;;;5029437;28;20435;-49
2023/07/04 07:28:45;;;;;;;6.13;1.30;;;16.10;99.90;;;;;;5027665;28;20095;-49
2023/07/04 07:31:18;;;;;;;7.78;1.00;;;16.10;99.90;;;;;;5027120;28;20116;-50
2023/07/04 07:33:48;;;;;;;7.32;1.38;;;16.10;99.90;;;;;;5028160;28;20519;-52
2023/07/04 07:36:19;;;;;;;4.28;0.70;;;16.20;99.90;;;;;;5027559;28;20626;-52
2023/07/04 07:38:44;;;;;;;6.22;1.05;;;16.30;99.90;;;;;;5027910;28;20463;-51
2023/07/04 07:41:10;;;;;;;4.93;1.25;;;16.50;99.90;;;;;;5023446;28;20171;-52
2023/07/04 07:43:38;;;;;;;10.77;1.70;;;16.60;99.90;;;;;;5029229;28;20513;-49
2023/07/04 07:46:07;;;;;;;5.78;0.88;;;16.80;99.90;;;;;;5029410;28;20044;-49
2023/07/04 07:48:33;;;;;;;7.60;1.00;;;16.90;99.90;;;;;;5028357;28;20052;-52
2023/07/04 07:50:58;;;;;;;10.68;0.98;;;17.10;99.90;;;;;;5029519;28;20041;-49
2023/07/04 07:53:24;;;;;;;5.53;1.08;;;17.30;99.90;;;;;;5029466;28;20213;-52
2023/07/04 07:55:50;;;;;;;9.98;1.23;;;17.40;99.90;;;;;;5029159;28;20553;-49
2023/07/04 07:58:15;;;;;;;7.03;1.63;;;17.60;99.90;;;;;;5030089;28;20052;-49
2023/07/04 08:00:41;;;;;;;7.28;0.70;;;17.70;99.90;;;;;;5030120;28;20556;-49
2023/07/04 08:03:06;;;;;;;5.45;1.00;;;17.70;99.90;;;;;;5026103;28;20402;-53
2023/07/04 08:05:40;;;;;;;6.30;0.95;;;17.70;99.90;;;;;;5019251;28;20065;-49
2023/07/04 08:08:07;;;;;;;8.10;1.23;;;17.60;99.90;;;;;;5020331;28;20049;-49
2023/07/04 08:10:36;;;;;;;6.20;1.00;;;17.60;99.90;;;;;;5025520;28;20041;-49
2023/07/04 08:13:02;;;;;;;5.70;1.17;;;17.50;99.90;;;;;;5023554;28;20046;-55
2023/07/04 08:15:28;;;;;;;3.97;0.98;;;17.50;99.90;;;;;;5020856;28;20051;-57
2023/07/04 08:17:53;;;;;;;6.55;1.40;;;17.30;99.90;;;;;;5001211;28;20038;-49
2023/07/04 08:20:21;;;;;;;7.38;0.95;;;17.30;99.90;;;;;;5019221;28;20045;-52
2023/07/04 08:22:47;;;;;;;6.55;1.20;;;17.50;99.90;;;;;;5024649;28;20037;-49
2023/07/04 08:25:14;;;;;;;8.55;1.27;;;17.60;99.90;;;;;;5019704;28;20406;-52
2023/07/04 08:27:40;;;;;;;7.50;0.85;;;17.70;99.90;;;;;;5016950;28;20529;-49
2023/07/04 08:30:06;;;;;;;7.22;1.60;;;17.70;99.90;;;;;;5023440;28;20072;-52
2023/07/04 08:32:33;;;;;;;;;;;17.80;99.90;;;;;;5024030;28;20249;-52
2023/07/04 08:34:59;;;;;;;6.97;1.35;;;17.80;99.90;;;;;;5020792;28;20449;-53
2023/07/04 08:37:25;;;;;;;6.13;1.13;;;17.90;99.90;;;;;;5024350;28;20030;-57
2023/07/04 08:39:51;;;;;;;8.68;1.73;;;17.80;99.90;;;;;;5021184;28;20033;-51
2023/07/04 08:42:18;;;;;;;8.43;0.88;;;17.70;99.90;;;;;;5024915;28;20038;-50
2023/07/04 08:44:48;;;;;;;7.30;1.65;;;17.70;99.90;;;;;;5019996;28;20492;-54
2023/07/04 08:47:17;;;;;;;6.13;0.90;;;17.70;99.90;;;;;;5024310;28;20029;-55
2023/07/04 08:49:51;;;;;;;11.98;1.98;;;17.60;99.90;;;;;;5018748;28;20034;-50
2023/07/04 08:52:52;;;;;;;6.82;1.75;;;17.60;99.90;;;;;;5023814;28;20084;-56
2023/07/04 08:55:18;;;;;;;8.88;1.13;;;17.60;99.90;;;;;;5018946;28;20053;-51
2023/07/04 08:57:58;;;;;;;11.18;2.20;;;17.70;99.90;;;;;;5022150;28;20060;-55
2023/07/04 09:00:32;;;;;;;12.02;1.17;;;17.60;99.90;;;;;;5025457;28;20145;-51
2023/07/04 09:03:23;;;;;;;10.70;1.45;;;17.50;99.90;;;;;;5023427;28;20038;-54
2023/07/04 09:06:27;;;;;;;7.90;1.50;;;17.40;99.90;;;;;;5027241;28;20065;-51
2023/07/04 09:09:08;;;;;;;9.20;1.60;;;17.30;99.90;;;;;;5026821;28;20037;-55
2023/07/04 09:11:34;;;;;;;8.32;0.90;;;17.30;99.90;;;;;;5027771;28;20041;-52
2023/07/04 09:14:06;;;;;;;6.78;1.08;;;17.20;99.90;;;;;;5026382;28;20117;-53
2023/07/04 09:16:41;;;;;;;12.93;1.92;;;17.10;99.90;;;;;;5026805;28;20057;-53
2023/07/04 09:19:12;;;;;;;10.80;1.38;;;17.10;99.90;;;;;;5026454;28;20442;-53
2023/07/04 09:21:37;;;;;;;10.15;1.73;;;16.90;99.90;;;;;;5026229;28;20045;-56
2023/07/04 09:24:04;;;;;;;9.00;1.42;;;16.90;99.90;;;;;;5026163;28;20092;-56
2023/07/04 09:26:35;;;;;;;8.82;1.63;;;16.80;99.90;;;;;;5025266;28;20069;-54
2023/07/04 09:29:01;;;;;;;8.15;1.70;;;16.80;99.90;;;;;;5024307;28;20041;-54
2023/07/04 09:31:34;;;;;;;4.32;1.05;;;16.70;99.90;;;;;;5025803;28;20045;-52
2023/07/04 09:34:21;;;;;;;8.77;1.10;;;16.70;99.90;;;;;;5026011;28;20044;-55
2023/07/04 09:36:50;;;;;;;6.20;1.00;;;16.70;99.90;;;;;;5025111;28;20038;-54
2023/07/04 09:39:16;;;;;;;8.50;1.95;;;16.70;99.90;;;;;;5025634;28;20041;-53
2023/07/04 09:41:41;;;;;;;4.82;0.90;;;16.80;99.90;;;;;;5025111;28;20048;-52
2023/07/04 09:44:20;;;;;;;6.93;1.75;;;16.80;99.90;;;;;;5025972;28;20064;-56
2023/07/04 09:46:50;;;;;;;11.80;1.48;;;16.90;99.90;;;;;;5024581;28;20041;-52
2023/07/04 09:49:25;;;;;;;10.05;2.15;;;16.90;99.90;;;;;;5025662;28;20144;-56
2023/07/04 09:52:14;;;;;;;5.38;1.45;;;16.90;99.90;;;;;;5022475;28;20102;-52
2023/07/04 09:54:41;;;;;;;9.55;2.00;;;16.80;99.90;;;;;;5022221;28;20053;-54
2023/07/04 09:57:26;;;;;;;8.80;2.28;;;16.70;99.90;;;;;;5025759;28;20584;-54
2023/07/04 09:59:53;;;;;;;8.70;1.58;;;16.80;99.90;;;;;;5025962;28;20033;-54
2023/07/04 10:02:34;;;;;;;8.70;1.80;;;16.80;99.90;;;;;;5025997;28;20042;-55
2023/07/04 10:05:00;;;;;;;4.50;1.05;;;17.00;99.90;;;;;;5023304;28;20223;-52
2023/07/04 10:07:26;;;;;;;;;;;17.10;99.90;;;;;;5026248;28;20042;-55
2023/07/04 10:09:54;;;;;;;6.03;1.25;;;17.10;99.90;;;;;;5024326;28;19916;-56
2023/07/04 10:12:21;;;;;;;13.35;1.63;;;17.10;99.90;;;;;;5025764;28;20409;-50
2023/07/04 10:14:53;;;;;;;6.80;0.95;;;17.20;99.90;;;;;;5023049;28;20077;-55
2023/07/04 10:17:22;;;;;;;6.13;1.08;;;17.20;99.90;;;;;;5025660;28;20037;-55
2023/07/04 10:19:50;;;;;;;6.97;1.33;;;17.30;99.90;;;;;;5024337;28;20038;-54
2023/07/04 10:22:45;;;;;;;9.20;1.50;;;17.30;99.90;;;;;;5025806;28;20025;-54
2023/07/04 10:25:21;;;;;;;5.80;1.17;;;17.30;99.90;;;;;;5021529;28;20518;-54
2023/07/04 10:28:06;;;;;;;7.37;1.87;;;17.40;99.90;;;;;;5025407;28;20392;-53
2023/07/04 10:30:36;;;;;;;7.60;1.00;;;17.40;99.90;;;;;;5025686;28;20041;-53
2023/07/04 10:33:09;;;;;;;6.30;0.98;;;17.40;99.90;;;;;;5025646;28;20040;-56
2023/07/04 10:35:39;;;;;;;8.18;1.20;;;17.40;99.90;;;;;;5022020;28;20041;-54
2023/07/04 10:38:36;;;;;;;12.13;2.20;;;17.40;99.90;;;;;;5023677;28;20115;-54
2023/07/04 10:41:14;;;;;;;8.32;1.30;;;17.60;99.90;;;;;;5025922;28;20041;-53
2023/07/04 10:43:44;;;;;;;14.60;2.25;;;17.80;99.90;;;;;;5025069;28;20042;-56
2023/07/04 10:46:14;;;;;;;12.85;1.75;;;18.00;99.90;;;;;;5022484;28;20416;-56
2023/07/04 10:48:42;;;;;;;5.50;1.27;;;18.20;99.90;;;;;;5024191;28;20042;-55
2023/07/04 10:51:17;;;;;;;8.13;1.05;;;18.50;99.90;;;;;;5025694;28;20414;-54
2023/07/04 10:53:42;;;;;;;8.57;1.17;;;18.60;99.90;;;;;;5022618;28;20037;-56
2023/07/04 10:56:32;;;;;;;8.55;1.60;;;18.60;99.90;;;;;;5024012;28;20146;-54
2023/07/04 10:59:23;;;;;;;9.57;1.58;;;18.40;99.90;;;;;;5021778;28;20041;-54
2023/07/04 11:01:58;;;;;;;9.90;1.70;;;18.30;99.90;;;;;;5007077;28;20503;-52
2023/07/04 11:04:31;;;;;;;7.15;1.13;;;18.20;99.90;;;;;;5023741;28;20048;-54
2023/07/04 11:07:03;;;;;;;5.07;1.80;;;18.20;99.90;;;;;;5024194;28;20064;-53
2023/07/04 11:09:38;;;;;;;5.70;1.65;;;18.10;99.90;;;;;;5024085;28;20241;-54
2023/07/04 11:12:13;;;;;;;9.23;1.73;;;18.10;99.90;;;;;;5022136;28;20661;-55
2023/07/04 11:14:41;;;;;;;6.85;1.33;;;18.00;99.90;;;;;;5024062;28;20045;-55
2023/07/04 11:17:12;;;;;;;6.70;1.67;;;17.90;99.90;;;;;;5019812;28;20044;-57
2023/07/04 11:20:11;;;;;;;8.98;1.77;;;17.80;99.90;;;;;;5022751;28;20632;-54
2023/07/04 11:22:57;;;;;;;10.50;1.83;;;17.80;99.90;;;;;;5021906;28;20443;-56
2023/07/04 11:25:41;;;;;;;8.20;1.58;;;17.90;99.90;;;;;;5023960;28;20034;-55
2023/07/04 11:28:35;;;;;;;5.03;1.38;;;17.80;99.90;;;;;;5023831;28;20038;-54
2023/07/04 11:31:11;;;;;;;6.07;1.38;;;17.70;99.90;;;;;;5022811;28;20037;-55
2023/07/04 11:33:42;;;;;;;5.47;1.38;;;17.60;99.90;;;;;;5023884;28;20048;-55
2023/07/04 11:36:17;;;;;;;9.23;1.17;;;17.60;99.90;;;;;;5023933;28;20045;-51
2023/07/04 11:38:50;;;;;;;8.25;1.42;;;17.60;99.90;;;;;;5023931;28;20546;-55
2023/07/04 11:41:17;;;;;;;6.07;1.27;;;17.60;99.90;;;;;;5023888;28;20049;-54
2023/07/04 11:43:45;;;;;;;8.70;1.75;;;17.60;99.90;;;;;;5023791;28;20042;-57
2023/07/04 11:46:22;;;;;;;7.40;1.55;;;17.60;99.90;;;;;;5024378;28;20120;-53
2023/07/04 11:48:53;;;;;;;14.45;1.73;;;17.60;99.90;;;;;;5023510;28;20402;-54
2023/07/04 11:51:20;;;;;;;11.00;1.85;;;17.60;99.90;;;;;;5024705;28;20034;-54
2023/07/04 11:53:52;;;;;;;7.45;1.50;;;17.60;99.90;;;;;;5023506;28;20434;-56
2023/07/04 11:56:32;;;;;;;9.20;1.27;;;17.60;99.90;;;;;;5023867;28;20033;-57
2023/07/04 11:59:10;;;;;;;9.13;1.75;;;17.70;99.90;;;;;;5023318;28;20033;-54
2023/07/04 12:01:51;;;;;;;10.95;1.80;;;17.70;99.90;;;;;;5017417;28;20141;-56
2023/07/04 12:04:24;;;;;;;7.28;2.00;;;17.70;99.90;;;;;;5017736;28;20052;-55
2023/07/04 12:07:03;;;;;;;9.07;1.30;;;17.60;99.90;;;;;;5023712;28;20036;-56
2023/07/04 12:09:52;;;;;;;8.30;1.13;;;17.60;99.90;;;;;;5019630;28;20184;-56
2023/07/04 12:12:24;;;;;;;5.30;1.50;;;17.60;99.90;;;;;;5021932;28;20044;-54
2023/07/04 12:14:56;;;;;;;9.95;1.40;;;17.60;99.90;;;;;;5020603;28;20041;-52
2023/07/04 12:17:22;;;;;;;10.35;2.10;;;17.60;99.90;;;;;;5023682;28;20095;-57
2023/07/04 12:19:55;;;;;;;7.25;1.50;;;17.70;99.90;;;;;;5021092;28;20671;-56
2023/07/04 12:22:20;;;;;;;12.45;2.17;;;17.90;99.90;;;;;;5021622;28;20047;-56
2023/07/04 12:24:46;;;;;;;18.65;1.98;;;18.20;99.90;;;;;;5022040;28;20058;-54
2023/07/04 12:27:12;;;;;;;6.50;1.38;;;18.50;99.90;;;;;;5022374;28;20037;-56
2023/07/04 12:29:47;;;;;;;8.73;1.95;;;18.70;99.90;;;;;;5021504;28;20041;-56
2023/07/04 12:32:16;;;;;;;6.47;1.10;;;18.70;99.40;;;;;;5022754;28;20086;-56
2023/07/04 12:34:42;;;;;;;11.13;1.60;;;18.90;99.70;;;;;;5025168;28;20049;-57
2023/07/04 12:37:14;;;;;;;9.13;1.63;;;19.00;98.60;;;;;;5027328;28;20502;-58
2023/07/04 12:39:48;;;;;;;6.38;1.67;;;19.20;97.60;;;;;;5026339;28;20116;-56
2023/07/04 12:42:29;;;;;;;10.43;1.40;;;19.50;98.50;;;;;;5027921;28;20030;-55
2023/07/04 12:44:55;;;;;;;7.55;1.20;;;19.70;97.40;;;;;;5024826;28;20538;-57
2023/07/04 12:47:25;;;;;;;5.10;1.08;;;19.90;96.60;;;;;;5026563;28;20036;-54
2023/07/04 12:49:53;;;;;;;10.65;1.55;;;20.00;96.70;;;;;;5027495;28;20060;-58
2023/07/04 12:52:22;;;;;;;6.13;1.08;;;20.10;95.90;;;;;;5024764;28;20025;-53
2023/07/04 12:54:48;;;;;;;8.18;1.50;;;20.10;96.00;;;;;;5025454;28;20045;-52
2023/07/04 12:57:15;;;;;;;;;;;20.20;96.90;;;;;;5027218;28;20048;-54